createdAt,value
2022-09-04T00:01:14.085Z,12.09
2022-09-04T00:04:14.765Z,12.08
2022-09-04T00:06:55.613Z,12.09
2022-09-04T00:09:37.540Z,12.06
2022-09-04T00:12:08.930Z,12.03
2022-09-04T00:14:50.771Z,12.02
2022-09-04T00:17:48.256Z,12.01
2022-09-04T00:20:17.790Z,12.02
2022-09-04T00:22:47.373Z,12.03
2022-09-04T00:25:28.638Z,12.06
2022-09-04T00:28:05.329Z,12.07
2022-09-04T00:30:35.840Z,12.06
2022-09-04T00:33:41.372Z,12.06
2022-09-04T00:36:08.747Z,12.02
2022-09-04T00:38:48.929Z,12.00
2022-09-04T00:41:39.111Z,12.01
2022-09-04T00:44:34.706Z,11.99
2022-09-04T00:47:28.995Z,11.99
2022-09-04T00:49:59.636Z,12.00
2022-09-04T00:52:58.165Z,12.02
2022-09-04T00:55:44.312Z,12.02
2022-09-04T00:58:51.420Z,12.03
2022-09-04T01:01:27.642Z,12.01
2022-09-04T01:04:03.424Z,12.02
2022-09-04T01:06:37.930Z,12.02
2022-09-04T01:09:31.253Z,12.04
2022-09-04T01:12:43.667Z,12.08
2022-09-04T01:15:21.087Z,12.07
2022-09-04T01:18:30.967Z,12.10
2022-09-04T01:21:15.172Z,12.09
2022-09-04T01:23:47.989Z,12.09
2022-09-04T01:26:17.385Z,12.12
2022-09-04T01:28:59.321Z,12.14
2022-09-04T01:31:41.982Z,12.15
2022-09-04T01:34:08.848Z,12.14
2022-09-04T01:36:50.138Z,12.14
2022-09-04T01:39:22.763Z,12.17
2022-09-04T01:42:00.417Z,12.17
2022-09-04T01:44:27.908Z,12.19
2022-09-04T01:47:21.375Z,12.21
2022-09-04T01:49:58.362Z,12.21
2022-09-04T01:52:48.613Z,12.20
2022-09-04T01:55:31.813Z,12.20
2022-09-04T01:58:35.931Z,12.18
2022-09-04T02:01:14.458Z,12.16
2022-09-04T02:03:57.466Z,12.16
2022-09-04T02:06:36.675Z,12.17
2022-09-04T02:09:36.439Z,12.17
2022-09-04T02:12:07.150Z,12.16
2022-09-04T02:14:49.638Z,12.13
2022-09-04T02:17:44.892Z,12.14
2022-09-04T02:20:22.266Z,12.16
2022-09-04T02:23:11.896Z,12.20
2022-09-04T02:25:51.009Z,12.21
2022-09-04T02:28:48.758Z,12.23
2022-09-04T02:31:24.458Z,12.25
2022-09-04T02:34:29.882Z,12.27
2022-09-04T02:37:01.809Z,12.27
2022-09-04T02:40:06.112Z,12.31
2022-09-04T02:42:54.723Z,12.35
2022-09-04T02:45:44.868Z,12.40
2022-09-04T02:48:45.142Z,12.43
2022-09-04T02:51:31.183Z,12.46
2022-09-04T02:54:14.662Z,12.48
2022-09-04T02:57:00.131Z,12.49
2022-09-04T02:59:52.935Z,12.52
2022-09-04T03:02:24.578Z,12.54
2022-09-04T03:05:15.609Z,12.56
2022-09-04T03:08:06.632Z,12.58
2022-09-04T03:10:50.870Z,12.59
2022-09-04T03:13:28.238Z,12.60
2022-09-04T03:16:24.213Z,12.62
2022-09-04T03:19:22.137Z,12.64
2022-09-04T03:22:10.716Z,12.66
2022-09-04T03:24:58.669Z,12.62
2022-09-04T03:27:27.544Z,12.62
2022-09-04T03:30:08.143Z,12.66
2022-09-04T03:32:55.525Z,12.72
2022-09-04T03:35:42.418Z,12.72
2022-09-04T03:38:34.043Z,12.73
2022-09-04T03:41:31.356Z,12.74
2022-09-04T03:44:12.275Z,12.74
2022-09-04T03:46:50.925Z,12.74
2022-09-04T03:49:54.806Z,12.77
2022-09-04T03:52:37.012Z,12.79
2022-09-04T03:55:16.580Z,12.79
2022-09-04T03:57:56.272Z,12.78
2022-09-04T04:00:23.187Z,12.78
2022-09-04T04:03:31.493Z,12.80
2022-09-04T04:06:06.987Z,12.79
2022-09-04T04:08:59.207Z,12.80
2022-09-04T04:12:00.231Z,12.81
2022-09-04T04:14:59.475Z,12.82
2022-09-04T04:17:51.006Z,12.86
2022-09-04T04:20:42.426Z,12.85
2022-09-04T04:23:18.596Z,12.85
2022-09-04T04:26:00.762Z,12.85
2022-09-04T04:29:00.021Z,12.87
2022-09-04T04:31:46.075Z,12.84
2022-09-04T04:34:22.618Z,12.85
2022-09-04T04:36:59.985Z,12.84
2022-09-04T04:39:57.295Z,12.82
2022-09-04T04:42:55.226Z,12.83
2022-09-04T04:45:52.321Z,12.81
2022-09-04T04:48:56.309Z,12.81
2022-09-04T04:51:39.907Z,12.79
2022-09-04T04:54:37.125Z,12.81
2022-09-04T04:57:27.768Z,12.80
2022-09-04T05:00:25.282Z,12.81
2022-09-04T05:03:19.177Z,12.81
2022-09-04T05:06:10.303Z,12.77
2022-09-04T05:08:50.238Z,12.79
2022-09-04T05:11:47.411Z,12.81
2022-09-04T05:14:22.733Z,12.80
2022-09-04T05:17:01.229Z,12.82
2022-09-04T05:19:52.600Z,12.81
2022-09-04T05:22:42.459Z,12.75
2022-09-04T05:25:16.935Z,12.74
2022-09-04T05:27:43.595Z,12.72
2022-09-04T05:30:47.959Z,12.72
2022-09-04T05:33:53.005Z,12.73
2022-09-04T05:36:38.399Z,12.72
2022-09-04T05:39:13.954Z,12.75
2022-09-04T05:42:06.358Z,12.72
2022-09-04T05:44:59.842Z,12.68
2022-09-04T05:47:56.443Z,12.59
2022-09-04T05:50:44.173Z,12.58
2022-09-04T05:53:39.308Z,12.50
2022-09-04T05:56:30.444Z,12.57
2022-09-04T05:59:24.125Z,12.63
2022-09-04T06:02:15.534Z,12.70
2022-09-04T06:05:10.913Z,12.74
2022-09-04T06:07:53.225Z,12.79
2022-09-04T06:10:57.892Z,12.87
2022-09-04T06:13:36.386Z,12.85
2022-09-04T06:16:29.519Z,12.92
2022-09-04T06:19:17.667Z,13.03
2022-09-04T06:22:10.046Z,13.11
2022-09-04T06:24:53.129Z,13.16
2022-09-04T06:27:57.763Z,13.24
2022-09-04T06:30:31.500Z,13.35
2022-09-04T06:33:30.258Z,13.47
2022-09-04T06:36:13.285Z,13.63
2022-09-04T06:39:00.967Z,13.80
2022-09-04T06:41:44.755Z,13.95
2022-09-04T06:44:26.987Z,14.04
2022-09-04T06:47:06.608Z,14.11
2022-09-04T06:50:09.718Z,14.28
2022-09-04T06:53:04.585Z,14.47
2022-09-04T06:56:05.409Z,14.60
2022-09-04T06:58:40.970Z,14.69
2022-09-04T07:01:13.712Z,14.72
2022-09-04T07:03:46.355Z,14.64
2022-09-04T07:06:22.211Z,14.65
2022-09-04T07:09:16.984Z,14.60
2022-09-04T07:12:12.681Z,14.67
2022-09-04T07:15:01.177Z,14.82
2022-09-04T07:17:36.977Z,14.97
2022-09-04T07:20:14.635Z,15.06
2022-09-04T07:22:59.797Z,15.20
2022-09-04T07:25:39.723Z,15.29
2022-09-04T07:28:51.990Z,15.38
2022-09-04T07:31:27.603Z,15.53
2022-09-04T07:34:12.663Z,15.64
2022-09-04T07:37:03.008Z,15.81
2022-09-04T07:39:46.821Z,15.86
2022-09-04T07:42:26.415Z,15.97
2022-09-04T07:45:16.703Z,16.18
2022-09-04T07:47:50.090Z,16.32
2022-09-04T07:50:29.475Z,16.44
2022-09-04T07:53:30.992Z,16.54
2022-09-04T07:56:20.391Z,16.63
2022-09-04T07:58:55.882Z,16.64
2022-09-04T08:01:50.410Z,16.64
2022-09-04T08:04:38.273Z,16.74
2022-09-04T08:07:12.443Z,16.89
2022-09-04T08:09:54.017Z,16.97
2022-09-04T08:13:08.927Z,16.95
2022-09-04T08:15:42.173Z,16.87
2022-09-04T08:18:30.375Z,16.86
2022-09-04T08:21:17.719Z,16.85
2022-09-04T08:23:50.145Z,16.81
2022-09-04T08:26:19.463Z,16.80
2022-09-04T08:29:24.081Z,16.75
2022-09-04T08:32:09.293Z,16.75
2022-09-04T08:34:50.591Z,16.71
2022-09-04T08:37:26.979Z,16.61
2022-09-04T08:40:13.460Z,16.46
2022-09-04T08:43:07.722Z,16.21
2022-09-04T08:45:42.207Z,16.11
2022-09-04T08:48:41.057Z,16.13
2022-09-04T08:51:19.917Z,16.19
2022-09-04T08:54:12.365Z,16.15
2022-09-04T08:56:58.389Z,16.09
2022-09-04T09:00:02.922Z,16.11
2022-09-04T09:02:48.061Z,16.19
2022-09-04T09:05:20.558Z,16.22
2022-09-04T09:08:01.941Z,16.31
2022-09-04T09:10:44.625Z,16.52
2022-09-04T09:13:26.401Z,16.64
2022-09-04T09:16:14.781Z,16.73
2022-09-04T09:18:47.675Z,16.97
2022-09-04T09:21:42.546Z,17.24
2022-09-04T09:24:44.557Z,17.36
2022-09-04T09:27:14.897Z,17.47
2022-09-04T09:29:56.727Z,17.46
2022-09-04T09:32:26.315Z,17.34
2022-09-04T09:35:13.925Z,17.16
2022-09-04T09:37:43.870Z,17.01
2022-09-04T09:40:42.230Z,16.89
2022-09-04T09:43:46.508Z,16.79
2022-09-04T09:46:39.442Z,16.77
2022-09-04T09:49:18.031Z,16.79
2022-09-04T09:52:03.534Z,16.86
2022-09-04T09:54:55.518Z,17.00
2022-09-04T09:57:33.173Z,17.16
2022-09-04T10:00:21.465Z,17.25
2022-09-04T10:03:17.186Z,17.19
2022-09-04T10:06:05.721Z,17.12
2022-09-04T10:08:50.305Z,17.10
2022-09-04T10:11:28.992Z,17.07
2022-09-04T10:14:30.771Z,17.06
2022-09-04T10:17:27.209Z,16.98
2022-09-04T10:20:42.054Z,16.91
2022-09-04T10:23:42.692Z,16.79
2022-09-04T10:26:47.848Z,16.71
2022-09-04T10:29:45.257Z,16.67
2022-09-04T10:32:11.846Z,16.68
2022-09-04T10:35:09.703Z,16.65
2022-09-04T10:38:00.570Z,16.59
2022-09-04T10:40:46.057Z,16.54
2022-09-04T10:43:40.506Z,16.45
2022-09-04T10:46:26.370Z,16.37
2022-09-04T10:49:30.569Z,16.36
2022-09-04T10:52:09.360Z,16.36
2022-09-04T10:55:21.297Z,16.29
2022-09-04T10:58:03.318Z,16.23
2022-09-04T11:00:50.661Z,16.16
2022-09-04T11:03:28.482Z,16.10
2022-09-04T11:06:11.216Z,15.94
2022-09-04T11:08:56.488Z,15.81
2022-09-04T11:11:39.210Z,15.75
2022-09-04T11:14:43.601Z,15.74
2022-09-04T11:17:19.727Z,15.72
2022-09-04T11:20:28.545Z,15.69
2022-09-04T11:23:32.150Z,15.68
2022-09-04T11:26:05.788Z,15.68
2022-09-04T11:28:40.477Z,15.69
2022-09-04T11:31:49.626Z,15.66
2022-09-04T11:34:57.027Z,15.76
2022-09-04T11:38:04.470Z,15.88
2022-09-04T11:41:05.630Z,16.00
2022-09-04T11:43:55.976Z,16.10
2022-09-04T11:46:39.354Z,16.11
2022-09-04T11:49:27.052Z,16.09
2022-09-04T11:52:40.571Z,16.03
2022-09-04T11:55:48.387Z,15.96
2022-09-04T11:58:24.595Z,15.89
2022-09-04T12:01:00.994Z,15.87
2022-09-04T12:03:46.978Z,15.84
2022-09-04T12:06:48.723Z,15.79
2022-09-04T12:09:36.618Z,15.78
2022-09-04T12:12:29.166Z,15.80
2022-09-04T12:15:24.100Z,15.87
2022-09-04T12:18:19.265Z,15.96
2022-09-04T12:21:05.679Z,16.04
2022-09-04T12:24:03.726Z,16.13
2022-09-04T12:27:03.344Z,16.26
2022-09-04T12:29:37.173Z,16.36
2022-09-04T12:32:19.629Z,16.42
2022-09-04T12:34:50.626Z,16.51
2022-09-04T12:37:51.245Z,16.69
2022-09-04T12:40:27.068Z,17.01
2022-09-04T12:43:20.741Z,18.06
2022-09-04T12:46:12.926Z,19.86
2022-09-04T12:49:02.220Z,21.33
2022-09-04T12:51:52.000Z,21.79
2022-09-04T12:54:52.259Z,21.83
2022-09-04T12:57:40.397Z,21.96
2022-09-04T13:00:12.984Z,21.85
2022-09-04T13:03:05.364Z,21.69
2022-09-04T13:05:53.503Z,21.47
2022-09-04T13:09:25.289Z,21.56
2022-09-04T13:12:02.546Z,22.01
2022-09-04T13:14:50.651Z,22.21
2022-09-04T13:17:26.062Z,22.47
2022-09-04T13:20:06.508Z,22.54
2022-09-04T13:22:59.201Z,22.50
2022-09-04T13:25:35.408Z,22.37
2022-09-04T13:28:31.602Z,22.14
2022-09-04T13:31:09.123Z,21.89
2022-09-04T13:33:59.186Z,21.63
2022-09-04T13:36:37.363Z,21.30
2022-09-04T13:39:28.485Z,21.10
2022-09-04T13:42:00.050Z,20.85
2022-09-04T13:45:05.832Z,20.60
2022-09-04T13:47:49.587Z,20.49
2022-09-04T13:50:25.573Z,20.35
2022-09-04T13:53:16.529Z,20.24
2022-09-04T13:56:14.542Z,20.29
2022-09-04T13:58:52.967Z,20.19
2022-09-04T14:01:28.291Z,20.21
2022-09-04T14:04:05.054Z,20.21
2022-09-04T14:06:32.922Z,20.16
2022-09-04T14:09:05.421Z,20.09
2022-09-04T14:11:58.558Z,19.98
2022-09-04T14:14:34.943Z,19.92
2022-09-04T14:17:01.706Z,19.89
2022-09-04T14:20:03.942Z,19.75
2022-09-04T14:22:52.929Z,19.57
2022-09-04T14:25:39.454Z,19.44
2022-09-04T14:28:48.408Z,19.39
2022-09-04T14:31:35.359Z,19.39
2022-09-04T14:34:17.386Z,19.51
2022-09-04T14:37:08.295Z,19.49
2022-09-04T14:39:49.123Z,19.41
2022-09-04T14:42:27.088Z,19.36
2022-09-04T14:45:18.313Z,19.35
2022-09-04T14:47:55.070Z,19.30
2022-09-04T14:50:32.265Z,19.23
2022-09-04T14:53:07.788Z,19.18
2022-09-04T14:55:41.643Z,19.14
2022-09-04T14:58:24.976Z,19.10
2022-09-04T15:01:04.068Z,19.06
2022-09-04T15:03:45.750Z,19.04
2022-09-04T15:06:19.321Z,18.99
2022-09-04T15:08:51.850Z,19.02
2022-09-04T15:11:32.243Z,19.12
2022-09-04T15:14:34.326Z,19.20
2022-09-04T15:17:04.999Z,19.26
2022-09-04T15:20:17.055Z,19.36
2022-09-04T15:22:54.399Z,19.45
2022-09-04T15:25:58.872Z,19.54
2022-09-04T15:28:48.010Z,19.57
2022-09-04T15:31:42.689Z,19.48
2022-09-04T15:34:26.102Z,19.42
2022-09-04T15:36:53.831Z,19.36
2022-09-04T15:39:48.713Z,19.28
2022-09-04T15:42:37.460Z,19.24
2022-09-04T15:45:14.146Z,19.18
2022-09-04T15:48:22.727Z,19.12
2022-09-04T15:51:01.898Z,19.00
2022-09-04T15:53:37.957Z,18.89
2022-09-04T15:56:33.048Z,18.79
2022-09-04T15:59:15.333Z,18.65
2022-09-04T16:01:51.642Z,18.57
2022-09-04T16:04:46.146Z,18.49
2022-09-04T16:07:19.900Z,18.42
2022-09-04T16:09:54.424Z,18.33
2022-09-04T16:12:30.974Z,18.19
2022-09-04T16:15:04.293Z,18.03
2022-09-04T16:17:45.528Z,17.90
2022-09-04T16:20:23.704Z,17.80
2022-09-04T16:23:02.485Z,17.74
2022-09-04T16:25:45.521Z,17.71
2022-09-04T16:31:16.301Z,17.66
2022-09-04T16:33:51.854Z,17.65
2022-09-04T16:36:29.001Z,17.66
2022-09-04T16:39:02.438Z,17.68
2022-09-04T16:41:51.454Z,17.69
2022-09-04T16:44:26.279Z,17.71
2022-09-04T16:47:49.230Z,17.69
2022-09-04T16:50:55.974Z,17.67
2022-09-04T16:56:51.869Z,17.58
2022-09-04T16:59:33.081Z,17.50
2022-09-04T17:02:41.961Z,17.41
2022-09-04T17:05:42.931Z,17.33
2022-09-04T17:08:29.385Z,17.26
2022-09-04T17:11:23.183Z,17.25
2022-09-04T17:14:08.885Z,17.24
2022-09-04T17:16:53.491Z,17.22
2022-09-04T17:19:22.299Z,17.23
2022-09-04T17:28:48.765Z,17.25
2022-09-04T17:29:10.107Z,17.27
2022-09-04T17:29:13.399Z,17.25
2022-09-04T17:31:58.041Z,17.28
2022-09-04T17:38:22.978Z,17.27
2022-09-04T17:40:55.517Z,17.23
2022-09-04T17:41:31.198Z,17.17
2022-09-04T17:44:27.894Z,17.12
2022-09-04T17:47:26.994Z,17.11
2022-09-04T17:49:55.713Z,17.09
2022-09-04T17:52:35.247Z,17.08
2022-09-04T17:55:04.341Z,17.06
2022-09-04T17:57:56.955Z,17.00
2022-09-04T18:00:33.035Z,16.98
2022-09-04T18:03:10.790Z,17.00
2022-09-04T18:05:53.618Z,17.02
2022-09-04T18:08:32.609Z,17.04
2022-09-04T18:11:09.432Z,17.05
2022-09-04T18:13:56.626Z,17.06
2022-09-04T18:17:12.458Z,17.04
2022-09-04T18:19:48.753Z,17.02
2022-09-04T18:22:33.207Z,17.02
2022-09-04T18:25:17.000Z,17.00
2022-09-04T18:28:07.539Z,17.00
2022-09-04T18:37:09.857Z,16.97
2022-09-04T18:37:15.979Z,16.94
2022-09-04T18:37:55.266Z,16.93
2022-09-04T18:40:53.515Z,16.90
2022-09-04T18:50:20.339Z,16.85
2022-09-04T18:50:44.948Z,16.74
2022-09-04T18:50:53.243Z,16.79
2022-09-04T18:52:06.317Z,16.72
2022-09-04T18:54:47.930Z,16.68
2022-09-04T18:57:27.160Z,16.65
2022-09-04T19:00:07.943Z,16.63
2022-09-04T19:02:53.763Z,16.62
2022-09-04T19:05:22.076Z,16.59
2022-09-04T19:07:57.003Z,16.57
2022-09-04T19:10:31.282Z,16.54
2022-09-04T19:13:22.500Z,16.51
2022-09-04T19:15:58.176Z,16.45
2022-09-04T19:18:46.725Z,16.44
2022-09-04T19:21:21.712Z,16.42
2022-09-04T19:23:58.883Z,16.42
2022-09-04T19:26:42.567Z,16.38
2022-09-04T19:29:30.706Z,16.34
2022-09-04T19:32:18.691Z,16.35
2022-09-04T19:34:52.729Z,16.34
2022-09-04T19:40:16.592Z,16.32
2022-09-04T19:45:59.278Z,16.29
2022-09-04T19:46:15.954Z,16.28
2022-09-04T19:46:53.996Z,16.26
2022-09-04T19:51:50.946Z,16.28
2022-09-04T19:53:32.278Z,16.23
2022-09-04T19:55:40.695Z,16.21
2022-09-04T19:58:20.594Z,16.17
2022-09-04T20:00:55.341Z,16.13
2022-09-04T20:03:30.474Z,16.10
2022-09-04T20:06:20.562Z,16.06
2022-09-04T20:09:17.799Z,16.02
2022-09-04T20:11:54.551Z,15.99
2022-09-04T20:14:39.793Z,16.00
2022-09-04T20:17:43.904Z,15.98
2022-09-04T20:20:23.242Z,15.95
2022-09-04T20:22:56.424Z,15.94
2022-09-04T20:25:40.731Z,15.93
2022-09-04T20:28:25.051Z,15.97
2022-09-04T20:31:33.341Z,15.98
2022-09-04T20:34:44.819Z,16.00
2022-09-04T20:37:29.481Z,15.97
2022-09-04T20:40:07.860Z,15.95
2022-09-04T20:42:43.624Z,15.94
2022-09-04T20:50:34.705Z,15.87
2022-09-04T20:53:00.038Z,15.77
2022-09-04T20:53:06.322Z,15.69
2022-09-04T20:54:29.147Z,15.70
2022-09-04T21:00:07.608Z,15.66
2022-09-04T21:03:21.099Z,15.53
2022-09-04T21:03:23.560Z,15.59
2022-09-04T21:06:30.079Z,15.51
2022-09-04T21:09:13.279Z,15.47
2022-09-04T21:11:45.318Z,15.42
2022-09-04T21:14:29.981Z,15.35
2022-09-04T21:17:35.628Z,15.32
2022-09-04T21:20:08.463Z,15.25
2022-09-04T21:22:59.828Z,15.20
2022-09-04T21:25:35.783Z,15.14
2022-09-04T21:28:26.614Z,15.08
2022-09-04T21:31:10.318Z,15.02
2022-09-04T21:34:09.802Z,14.94
2022-09-04T21:37:02.715Z,14.88
2022-09-04T21:39:58.505Z,14.83
2022-09-04T21:42:31.224Z,14.82
2022-09-04T21:45:04.752Z,14.83
2022-09-04T21:47:50.134Z,14.83
2022-09-04T21:50:28.485Z,14.85
2022-09-04T21:53:47.699Z,14.83
2022-09-04T22:01:33.221Z,14.79
2022-09-04T22:02:31.713Z,14.77
2022-09-04T22:03:02.434Z,14.81
2022-09-04T22:05:43.910Z,14.82
2022-09-04T22:12:16.849Z,14.83
2022-09-04T22:13:37.503Z,14.85
2022-09-04T22:14:25.626Z,14.80
2022-09-04T22:17:06.802Z,14.72
2022-09-04T22:19:58.290Z,14.71
2022-09-04T22:22:54.710Z,14.68
2022-09-04T22:25:27.258Z,14.66
2022-09-04T22:28:21.514Z,14.65
2022-09-04T22:31:03.004Z,14.65
2022-09-04T22:34:15.040Z,14.65
2022-09-04T22:37:05.304Z,14.60
2022-09-04T22:39:54.317Z,14.52
2022-09-04T22:42:56.182Z,14.45
2022-09-04T22:45:44.694Z,14.38
2022-09-04T22:48:33.024Z,14.30
2022-09-04T22:51:33.228Z,14.22
2022-09-04T22:53:59.893Z,14.16
2022-09-04T22:56:32.486Z,14.11
2022-09-04T22:59:29.040Z,14.10
2022-09-04T23:02:17.184Z,14.08
2022-09-04T23:05:28.579Z,14.07
2022-09-04T23:13:49.834Z,14.03
2022-09-04T23:13:51.398Z,14.04
2022-09-04T23:14:45.330Z,13.99
2022-09-04T23:17:30.532Z,14.01
2022-09-04T23:26:38.020Z,13.99
2022-09-04T23:26:42.225Z,14.05
2022-09-04T23:26:49.409Z,14.00
2022-09-04T23:29:55.818Z,14.04
2022-09-04T23:33:02.738Z,14.07
2022-09-04T23:36:00.022Z,14.11
2022-09-04T23:39:27.880Z,14.16
2022-09-04T23:42:36.031Z,14.20
2022-09-04T23:45:18.305Z,14.23
2022-09-04T23:48:17.370Z,14.28
2022-09-04T23:50:49.890Z,14.31
2022-09-04T23:54:25.082Z,14.34
2022-09-04T23:57:27.987Z,14.38
